Time;durP1;ratioP1;P1;durP2;ratioP2;P2;SDS_P1;SDS_P2;PMS_P1;PMS_P2;Temp;Humidity;BMP_temperature;BMP_pressure;BME280_temperature;BME280_humidity;BME280_pressure;Samples;Min_cycle;Max_cycle;Signal;HPM_P1;HPM_P2
2022/05/11 00:00:50;;;;;;;;;;;;;;;11.80;43.00;100631.59;85764;1337;23052;-74
2022/05/11 00:02:55;;;;;;;;;;;;;;;11.76;43.03;100627.70;85755;1336;22521;-74
2022/05/11 00:04:59;;;;;;;;;;;;;;;11.73;42.94;100627.65;85755;1338;22488;-75
2022/05/11 00:07:05;;;;;;;;;;;;;;;11.71;43.07;100626.33;85769;1338;23134;-74
2022/05/11 00:09:10;;;;;;;;;;;;;;;11.69;43.09;100624.86;85746;1337;22601;-75
2022/05/11 00:11:15;;;;;;;;;;;;;;;11.68;43.15;100621.06;85756;1335;23211;-75
2022/05/11 00:13:22;;;;;;;;;;;;;;;11.65;43.22;100615.93;85747;1336;22468;-75
2022/05/11 00:15:30;;;;;;;;;;;;;;;11.62;43.38;100617.59;85767;1338;23167;-75
2022/05/11 00:17:35;;;;;;;;;;;;;;;11.58;43.65;100618.95;85740;1338;22606;-75
2022/05/11 00:19:39;;;;;;;;;;;;;;;11.56;43.58;100616.77;85741;1337;23258;-75
2022/05/11 00:21:44;;;;;;;;;;;;;;;11.55;43.67;100611.06;85752;1336;22508;-76
2022/05/11 00:23:49;;;;;;;;;;;;;;;11.51;43.80;100607.70;85745;1337;22491;-75
2022/05/11 00:25:53;;;;;;;;;;;;;;;11.48;44.18;100603.98;85758;1335;23259;-74
2022/05/11 00:27:58;;;;;;;;;;;;;;;11.46;43.90;100599.50;85742;1337;22457;-73
2022/05/11 00:30:03;;;;;;;;;;;;;;;11.44;44.03;100594.52;85747;1336;22483;-74
2022/05/11 00:32:09;;;;;;;;;;;;;;;11.41;44.24;100585.20;85758;1336;23113;-73
2022/05/11 00:34:14;;;;;;;;;;;;;;;11.39;44.40;100583.21;85747;1337;22545;-74
2022/05/11 00:36:21;;;;;;;;;;;;;;;11.36;44.29;100575.74;85746;1337;23230;-74
2022/05/11 00:38:29;;;;;;;;;;;;;;;11.36;44.33;100571.58;85751;1337;23053;-74
2022/05/11 00:40:40;;;;;;;;;;;;;;;11.36;44.43;100567.73;85747;1338;22492;-74
2022/05/11 00:42:48;;;;;;;;;;;;;;;11.37;44.60;100570.85;85759;1338;23293;-74
2022/05/11 00:44:54;;;;;;;;;;;;;;;11.36;44.51;100574.73;85747;1336;22476;-74
2022/05/11 00:47:04;;;;;;;;;;;;;;;11.35;44.66;100575.45;85749;1338;23196;-76
2022/05/11 00:51:40;;;;;;;;;;;;;;;11.33;44.79;100576.25;85760;1336;22486;-75
2022/05/11 00:53:45;;;;;;;;;;;;;;;11.32;44.92;100580.11;85731;1338;22498;-76
2022/05/11 00:55:51;;;;;;;;;;;;;;;11.31;45.11;100577.54;85758;1335;22536;-76
2022/05/11 00:58:01;;;;;;;;;;;;;;;11.29;45.24;100577.45;85746;1336;22489;-74
2022/05/11 01:00:11;;;;;;;;;;;;;;;11.29;45.28;100570.30;85731;1338;22438;-74
2022/05/11 01:02:15;;;;;;;;;;;;;;;11.27;45.50;100571.56;85772;1336;22459;-73
2022/05/11 01:04:23;;;;;;;;;;;;;;;11.28;45.47;100575.56;85736;1338;22456;-74
2022/05/11 01:06:28;;;;;;;;;;;;;;;11.26;45.70;100575.62;85754;1336;22504;-76
2022/05/11 01:08:35;;;;;;;;;;;;;;;11.25;45.93;100578.30;85753;1338;23069;-76
2022/05/11 01:10:40;;;;;;;;;;;;;;;11.23;46.16;100579.93;85755;1338;22506;-76
2022/05/11 01:12:46;;;;;;;;;;;;;;;11.21;46.26;100582.43;85747;1338;22503;-75
2022/05/11 01:14:52;;;;;;;;;;;;;;;11.19;46.13;100581.83;85744;1336;22551;-75
2022/05/11 01:16:57;;;;;;;;;;;;;;;11.19;46.13;100583.45;85759;1336;22519;-75
2022/05/11 01:19:04;;;;;;;;;;;;;;;11.19;46.21;100588.13;85739;1336;22514;-75
2022/05/11 01:21:11;;;;;;;;;;;;;;;11.20;46.27;100590.73;85751;1337;22465;-75
2022/05/11 01:23:18;;;;;;;;;;;;;;;11.20;46.22;100586.17;85760;1338;23123;-75
2022/05/11 01:25:23;;;;;;;;;;;;;;;11.19;46.20;100588.14;85552;1338;23166;-74
2022/05/11 01:27:33;;;;;;;;;;;;;;;11.18;46.56;100581.00;85668;1337;22495;-74
2022/05/11 01:29:38;;;;;;;;;;;;;;;11.17;46.92;100580.33;85732;1338;23316;-74
2022/05/11 01:31:45;;;;;;;;;;;;;;;11.15;47.03;100575.88;85755;1338;22582;-74
2022/05/11 01:33:53;;;;;;;;;;;;;;;11.13;47.47;100574.37;85752;1338;23071;-74
2022/05/11 01:36:02;;;;;;;;;;;;;;;11.11;47.68;100568.86;85749;1338;22501;-74
2022/05/11 01:38:13;;;;;;;;;;;;;;;11.09;47.54;100565.80;85753;1336;22489;-75
2022/05/11 01:40:20;;;;;;;;;;;;;;;11.08;47.62;100557.27;85616;1337;22513;-76
2022/05/11 01:42:25;;;;;;;;;;;;;;;11.07;47.60;100556.27;85749;1337;23045;-74
2022/05/11 01:44:33;;;;;;;;;;;;;;;11.05;47.68;100550.56;85747;1338;22566;-75
2022/05/11 01:46:38;;;;;;;;;;;;;;;11.04;47.98;100549.39;85748;1338;22638;-74
2022/05/11 01:48:43;;;;;;;;;;;;;;;11.03;47.86;100545.42;85630;1336;22538;-73
2022/05/11 01:50:51;;;;;;;;;;;;;;;11.03;47.93;100542.45;85559;1341;22594;-75
2022/05/11 01:52:56;;;;;;;;;;;;;;;11.02;47.99;100539.36;85742;1338;22471;-75
2022/05/11 01:55:01;;;;;;;;;;;;;;;11.01;47.67;100536.24;85005;1336;1003393;-75
2022/05/11 01:57:06;;;;;;;;;;;;;;;11.01;47.63;100534.32;85760;1338;22542;-75
2022/05/11 01:59:11;;;;;;;;;;;;;;;11.01;47.57;100529.61;85028;1337;1002227;-75
2022/05/11 02:01:20;;;;;;;;;;;;;;;11.01;47.69;100521.24;85609;1337;22715;-75
2022/05/11 02:03:28;;;;;;;;;;;;;;;10.99;47.81;100515.91;85749;1338;22511;-77
2022/05/11 02:08:00;;;;;;;;;;;;;;;10.94;48.10;100515.04;85631;1339;23148;-74
2022/05/11 02:10:13;;;;;;;;;;;;;;;10.93;47.96;100508.97;85669;1336;22471;-75
2022/05/11 02:12:25;;;;;;;;;;;;;;;10.91;48.35;100507.45;85450;1342;23251;-76
2022/05/11 02:14:33;;;;;;;;;;;;;;;10.91;48.00;100504.16;84857;1339;1002506;-76
2022/05/11 02:16:37;;;;;;;;;;;;;;;10.91;48.04;100499.27;85672;1339;22469;-76
2022/05/11 02:18:43;;;;;;;;;;;;;;;10.91;47.92;100494.89;85532;1338;22560;-76
2022/05/11 02:20:51;;;;;;;;;;;;;;;10.92;48.04;100490.48;85666;1339;23178;-76
2022/05/11 02:22:56;;;;;;;;;;;;;;;10.93;48.08;100481.70;85657;1338;23063;-76
2022/05/11 02:25:00;;;;;;;;;;;;;;;10.94;47.91;100475.61;85634;1339;23306;-76
2022/05/11 02:27:06;;;;;;;;;;;;;;;10.95;47.97;100475.91;85674;1336;22552;-74
2022/05/11 02:29:11;;;;;;;;;;;;;;;10.95;47.93;100479.38;85670;1339;22776;-74
2022/05/11 02:31:15;;;;;;;;;;;;;;;10.95;48.06;100480.24;85667;1336;23144;-73
2022/05/11 02:33:21;;;;;;;;;;;;;;;10.95;48.09;100478.84;85650;1339;23038;-74
2022/05/11 02:35:26;;;;;;;;;;;;;;;10.95;48.35;100477.30;85669;1336;23138;-75
2022/05/11 02:37:31;;;;;;;;;;;;;;;10.94;48.38;100476.10;85597;1339;23163;-75
2022/05/11 02:39:38;;;;;;;;;;;;;;;10.92;48.67;100470.92;85656;1337;22578;-75
2022/05/11 02:41:43;;;;;;;;;;;;;;;10.91;48.65;100472.55;85484;1337;22586;-75
2022/05/11 02:43:48;;;;;;;;;;;;;;;10.90;48.84;100468.05;85573;1339;22621;-75
2022/05/11 02:45:52;;;;;;;;;;;;;;;10.90;48.49;100475.41;85665;1336;22668;-75
2022/05/11 02:47:57;;;;;;;;;;;;;;;10.89;48.46;100478.39;85676;1336;23262;-75
2022/05/11 02:50:06;;;;;;;;;;;;;;;10.90;48.32;100480.80;85470;1341;23255;-75
2022/05/11 02:52:10;;;;;;;;;;;;;;;10.90;48.23;100474.69;85684;1336;23014;-74
2022/05/11 02:54:15;;;;;;;;;;;;;;;10.91;48.42;100474.48;85666;1336;22536;-74
2022/05/11 02:56:20;;;;;;;;;;;;;;;10.91;48.29;100477.95;85676;1336;22591;-75
2022/05/11 02:58:28;;;;;;;;;;;;;;;10.93;48.28;100478.06;85542;1338;22584;-75
2022/05/11 03:00:36;;;;;;;;;;;;;;;10.93;48.31;100476.48;85677;1339;22586;-75
2022/05/11 03:02:41;;;;;;;;;;;;;;;10.94;48.30;100472.64;85669;1337;23111;-75
2022/05/11 03:04:45;;;;;;;;;;;;;;;10.94;48.14;100470.20;85469;1341;22542;-74
2022/05/11 03:06:50;;;;;;;;;;;;;;;10.95;48.01;100472.77;85663;1339;23149;-76
2022/05/11 03:08:55;;;;;;;;;;;;;;;10.95;48.23;100469.11;85643;1339;23156;-76
2022/05/11 03:10:59;;;;;;;;;;;;;;;10.95;47.92;100468.59;85640;1339;23106;-74
2022/05/11 03:13:05;;;;;;;;;;;;;;;10.95;48.26;100466.31;85656;1337;22445;-75
2022/05/11 03:15:13;;;;;;;;;;;;;;;10.94;48.04;100463.71;85543;1338;22499;-75
2022/05/11 03:17:17;;;;;;;;;;;;;;;10.95;48.09;100464.73;85666;1336;22589;-75
2022/05/11 03:19:22;;;;;;;;;;;;;;;10.95;48.12;100460.20;85641;1339;23001;-75
2022/05/11 03:21:27;;;;;;;;;;;;;;;10.95;48.48;100449.55;85652;1339;22437;-74
2022/05/11 03:23:31;;;;;;;;;;;;;;;10.95;48.39;100452.51;85650;1336;22610;-74
2022/05/11 03:25:39;;;;;;;;;;;;;;;10.96;48.55;100449.17;85564;1340;23141;-74
2022/05/11 03:27:43;;;;;;;;;;;;;;;10.96;48.69;100444.95;85580;1340;23279;-75
2022/05/11 03:29:48;;;;;;;;;;;;;;;10.98;48.45;100446.80;85644;1336;23159;-74
2022/05/11 03:36:41;;;;;;;;;;;;;;;11.11;48.91;100443.69;85651;1339;22501;-74
2022/05/11 03:38:45;;;;;;;;;;;;;;;11.16;48.71;100443.34;85643;1337;22569;-74
2022/05/11 03:40:50;;;;;;;;;;;;;;;11.21;48.82;100437.70;85659;1340;22524;-74
2022/05/11 03:42:54;;;;;;;;;;;;;;;11.25;48.65;100441.55;85634;1340;23070;-74
2022/05/11 03:45:07;;;;;;;;;;;;;;;11.30;48.55;100439.95;85646;1340;22592;-74
2022/05/11 03:47:14;;;;;;;;;;;;;;;11.35;48.51;100440.46;85656;1336;23188;-75
2022/05/11 03:49:22;;;;;;;;;;;;;;;11.40;48.34;100441.12;85645;1336;23144;-74
2022/05/11 03:51:27;;;;;;;;;;;;;;;11.45;48.29;100439.18;85476;1339;22652;-74
2022/05/11 03:53:32;;;;;;;;;;;;;;;11.49;47.99;100435.36;85624;1336;23194;-74
2022/05/11 03:55:36;;;;;;;;;;;;;;;11.54;47.97;100433.58;85647;1337;22616;-74
2022/05/11 03:57:41;;;;;;;;;;;;;;;11.59;47.81;100434.93;85652;1337;22488;-74
2022/05/11 03:59:46;;;;;;;;;;;;;;;11.65;47.91;100434.15;85652;1336;22492;-75
2022/05/11 04:01:50;;;;;;;;;;;;;;;11.72;47.80;100431.42;85652;1336;23106;-75
2022/05/11 04:03:55;;;;;;;;;;;;;;;11.80;47.78;100432.14;85655;1338;22503;-75
2022/05/11 04:06:00;;;;;;;;;;;;;;;11.88;47.62;100430.07;85656;1336;23331;-75
2022/05/11 04:08:05;;;;;;;;;;;;;;;11.98;47.55;100429.32;85649;1337;23130;-75
2022/05/11 04:10:11;;;;;;;;;;;;;;;12.08;47.45;100429.07;85638;1339;23251;-75
2022/05/11 04:12:16;;;;;;;;;;;;;;;12.21;47.30;100431.14;85656;1337;23077;-75
2022/05/11 04:14:21;;;;;;;;;;;;;;;12.33;47.54;100430.95;85644;1339;22474;-75
2022/05/11 04:16:26;;;;;;;;;;;;;;;12.44;47.09;100431.68;85654;1339;22497;-75
2022/05/11 04:18:31;;;;;;;;;;;;;;;12.56;47.00;100431.14;85657;1339;23123;-75
2022/05/11 04:20:36;;;;;;;;;;;;;;;12.69;46.97;100428.98;85645;1336;22609;-75
2022/05/11 04:22:41;;;;;;;;;;;;;;;12.77;46.50;100422.98;85650;1336;22474;-75
2022/05/11 04:24:49;;;;;;;;;;;;;;;12.87;46.43;100425.50;85620;1337;23072;-75
2022/05/11 04:26:54;;;;;;;;;;;;;;;12.99;46.30;100429.52;85655;1339;23149;-74
2022/05/11 04:29:01;;;;;;;;;;;;;;;13.08;46.39;100425.02;85665;1336;23198;-75
2022/05/11 04:31:07;;;;;;;;;;;;;;;13.18;46.09;100425.63;85672;1337;23169;-75
2022/05/11 04:33:15;;;;;;;;;;;;;;;13.30;45.88;100422.27;85661;1339;22991;-74
2022/05/11 04:35:19;;;;;;;;;;;;;;;13.45;45.95;100418.39;85644;1336;23089;-74
2022/05/11 04:37:27;;;;;;;;;;;;;;;13.59;45.76;100423.46;85645;1335;23148;-75
2022/05/11 04:39:36;;;;;;;;;;;;;;;13.79;46.04;100414.05;85652;1337;22526;-74
2022/05/11 04:41:41;;;;;;;;;;;;;;;14.07;45.61;100416.30;85646;1339;22603;-74
2022/05/11 04:43:46;;;;;;;;;;;;;;;14.44;45.01;100411.77;85653;1336;23060;-73
2022/05/11 04:45:55;;;;;;;;;;;;;;;14.90;44.77;100414.69;85638;1339;23207;-75
2022/05/11 04:47:59;;;;;;;;;;;;;;;15.38;44.00;100406.39;85652;1336;22474;-76
2022/05/11 04:50:08;;;;;;;;;;;;;;;15.86;43.85;100397.98;85647;1336;22488;-76
2022/05/11 04:52:17;;;;;;;;;;;;;;;16.25;42.94;100396.34;85506;1341;22446;-76
2022/05/11 04:54:24;;;;;;;;;;;;;;;16.64;42.39;100393.90;85664;1339;23143;-75
2022/05/11 04:56:31;;;;;;;;;;;;;;;17.18;41.51;100395.98;85645;1337;22602;-76
2022/05/11 04:58:36;;;;;;;;;;;;;;;17.50;40.78;100400.50;85657;1336;23132;-74
2022/05/11 05:00:41;;;;;;;;;;;;;;;17.66;40.61;100395.77;85648;1336;22489;-73
2022/05/11 05:02:46;;;;;;;;;;;;;;;18.01;40.29;100393.40;85659;1339;22499;-74
2022/05/11 05:04:51;;;;;;;;;;;;;;;18.43;39.77;100394.88;83461;1336;3084709;-75
2022/05/11 05:06:56;;;;;;;;;;;;;;;18.73;38.79;100395.14;85679;1339;23192;-75
2022/05/11 05:09:01;;;;;;;;;;;;;;;18.63;37.80;100391.58;85664;1336;23108;-74
2022/05/11 05:11:06;;;;;;;;;;;;;;;18.58;38.66;100394.58;85658;1335;23242;-74
2022/05/11 05:13:12;;;;;;;;;;;;;;;18.88;38.51;100395.64;85503;1339;22448;-73
2022/05/11 05:15:19;;;;;;;;;;;;;;;19.33;37.98;100392.83;85527;1339;22649;-74
2022/05/11 05:17:24;;;;;;;;;;;;;;;19.75;37.35;100389.89;85648;1339;23191;-76
2022/05/11 05:19:29;;;;;;;;;;;;;;;20.09;36.81;100390.48;85654;1337;23239;-74
2022/05/11 05:21:34;;;;;;;;;;;;;;;20.37;36.40;100387.25;85588;1336;22617;-74
2022/05/11 05:23:39;;;;;;;;;;;;;;;20.70;35.60;100387.61;85663;1339;23179;-84
2022/05/11 05:25:46;;;;;;;;;;;;;;;21.04;35.46;100390.23;85547;1340;22803;-76
2022/05/11 05:31:04;;;;;;;;;;;;;;;21.34;35.22;100389.89;85631;1337;22498;-74
2022/05/11 05:32:47;;;;;;;;;;;;;;;22.17;33.34;100381.16;85667;1336;23233;-77
2022/05/11 05:34:52;;;;;;;;;;;;;;;22.44;32.17;100375.44;85657;1336;23301;-76
2022/05/11 05:36:56;;;;;;;;;;;;;;;22.52;32.46;100377.23;85671;1337;23257;-76
2022/05/11 05:39:04;;;;;;;;;;;;;;;22.83;32.52;100380.15;85666;1335;22526;-76
2022/05/11 05:41:10;;;;;;;;;;;;;;;23.36;31.88;100380.73;85557;1337;22504;-75
2022/05/11 05:43:14;;;;;;;;;;;;;;;23.84;31.23;100378.47;85492;1340;22513;-75
2022/05/11 05:45:20;;;;;;;;;;;;;;;24.34;30.83;100375.31;85548;1337;22450;-74
2022/05/11 05:47:26;;;;;;;;;;;;;;;24.66;29.88;100378.41;85568;1334;22504;-76
2022/05/11 05:49:31;;;;;;;;;;;;;;;24.94;29.54;100377.38;85552;1341;22471;-76
2022/05/11 05:51:37;;;;;;;;;;;;;;;24.96;29.05;100380.15;85659;1337;23051;-76
2022/05/11 05:53:47;;;;;;;;;;;;;;;24.99;28.99;100381.39;85677;1336;23149;-76
2022/05/11 05:56:00;;;;;;;;;;;;;;;25.03;29.17;100380.25;85666;1337;23350;-76
2022/05/11 05:58:07;;;;;;;;;;;;;;;25.01;28.68;100380.60;85650;1336;22461;-78
2022/05/11 06:00:16;;;;;;;;;;;;;;;24.97;28.78;100379.92;85659;1337;22477;-76
2022/05/11 06:02:43;;;;;;;;;;;;;;;24.89;28.68;100381.05;85671;1337;22585;-74
2022/05/11 06:04:51;;;;;;;;;;;;;;;24.80;28.62;100384.05;85676;1336;23198;-75
2022/05/11 06:06:59;;;;;;;;;;;;;;;24.78;28.99;100385.02;85664;1339;22532;-74
2022/05/11 06:09:09;;;;;;;;;;;;;;;24.94;28.82;100383.58;85666;1339;23042;-74
2022/05/11 06:11:14;;;;;;;;;;;;;;;25.16;28.82;100386.42;85688;1337;22580;-74
2022/05/11 06:13:22;;;;;;;;;;;;;;;25.33;28.52;100381.55;85676;1336;22518;-74
2022/05/11 06:15:45;;;;;;;;;;;;;;;25.58;28.38;100385.14;85676;1338;22460;-74
2022/05/11 06:17:57;;;;;;;;;;;;;;;25.85;27.93;100381.52;85490;1338;23175;-74
2022/05/11 06:20:08;;;;;;;;;;;;;;;26.02;28.00;100384.58;85563;1339;23120;-74
2022/05/11 06:22:14;;;;;;;;;;;;;;;26.31;27.85;100386.20;85665;1339;22446;-77
2022/05/11 06:24:21;;;;;;;;;;;;;;;26.79;27.34;100385.63;85642;1339;23162;-77
2022/05/11 06:26:27;;;;;;;;;;;;;;;27.09;26.77;100386.98;85674;1339;23052;-75
2022/05/11 06:28:32;;;;;;;;;;;;;;;27.29;26.32;100386.77;85660;1338;22491;-75
2022/05/11 06:30:37;;;;;;;;;;;;;;;27.42;26.41;100387.20;85640;1337;23048;-75
2022/05/11 06:32:44;;;;;;;;;;;;;;;27.66;26.47;100381.16;85686;1336;22583;-76
2022/05/11 06:34:49;;;;;;;;;;;;;;;27.88;26.29;100378.92;85652;1336;23063;-76
2022/05/11 06:36:55;;;;;;;;;;;;;;;27.98;25.83;100376.17;85673;1336;22617;-77
2022/05/11 06:39:00;;;;;;;;;;;;;;;28.00;25.33;100375.06;85682;1337;23078;-78
2022/05/11 06:41:12;;;;;;;;;;;;;;;28.11;25.17;100372.75;85662;1334;22529;-77
2022/05/11 06:43:16;;;;;;;;;;;;;;;28.19;25.30;100369.88;85684;1337;22459;-78
2022/05/11 06:45:23;;;;;;;;;;;;;;;28.14;25.34;100365.95;85677;1336;22600;-78
2022/05/11 06:47:28;;;;;;;;;;;;;;;28.22;25.12;100367.91;85562;1339;22548;-77
2022/05/11 06:49:36;;;;;;;;;;;;;;;28.46;25.14;100367.50;85469;1339;22549;-78
2022/05/11 06:51:45;;;;;;;;;;;;;;;28.69;24.97;100369.04;85675;1337;23096;-76
2022/05/11 07:01:12;;;;;;;;;;;;;;;29.95;23.88;100364.60;85282;1341;23152;-77
2022/05/11 07:03:17;;;;;;;;;;;;;;;30.22;23.74;100361.87;85280;1342;23225;-77
2022/05/11 07:05:24;;;;;;;;;;;;;;;30.54;23.71;100358.64;85461;1340;22542;-77
2022/05/11 07:07:32;;;;;;;;;;;;;;;30.94;22.84;100357.82;85484;1338;23312;-78
2022/05/11 07:09:37;;;;;;;;;;;;;;;31.28;22.50;100354.96;85676;1336;23152;-77
2022/05/11 07:14:05;;;;;;;;;;;;;;;32.28;21.93;100345.05;85659;1336;23162;-73
2022/05/11 07:16:13;;;;;;;;;;;;;;;32.46;21.18;100342.72;85665;1337;22500;-78
2022/05/11 07:18:19;;;;;;;;;;;;;;;32.58;21.95;100346.27;85665;1336;22486;-77
2022/05/11 07:20:26;;;;;;;;;;;;;;;33.02;21.40;100339.30;85481;1340;22467;-78
2022/05/11 07:22:34;;;;;;;;;;;;;;;33.40;20.44;100336.89;85686;1339;23096;-74
2022/05/11 07:24:40;;;;;;;;;;;;;;;33.51;20.64;100335.11;85668;1336;22584;-75
2022/05/11 07:26:45;;;;;;;;;;;;;;;33.74;20.11;100334.80;85677;1337;22502;-74
2022/05/11 07:28:50;;;;;;;;;;;;;;;33.91;20.26;100329.36;85487;1338;22490;-74
2022/05/11 07:30:55;;;;;;;;;;;;;;;34.19;19.97;100330.61;85671;1338;22691;-73
2022/05/11 07:33:00;;;;;;;;;;;;;;;34.38;19.35;100330.75;85660;1337;22600;-73
2022/05/11 07:35:09;;;;;;;;;;;;;;;34.50;19.45;100324.70;85675;1336;23125;-74
2022/05/11 07:37:14;;;;;;;;;;;;;;;34.63;19.47;100321.14;85686;1339;22478;-77
2022/05/11 07:39:23;;;;;;;;;;;;;;;34.45;19.40;100317.52;85678;1336;23096;-72
2022/05/11 07:41:27;;;;;;;;;;;;;;;34.01;19.39;100316.20;85685;1332;22499;-79
2022/05/11 07:43:37;;;;;;;;;;;;;;;33.82;19.84;100316.47;85680;1336;22470;-80
2022/05/11 07:45:45;;;;;;;;;;;;;;;33.77;19.97;100315.77;85468;1341;22679;-80
2022/05/11 07:47:50;;;;;;;;;;;;;;;33.39;19.73;100310.06;85694;1336;22533;-80
2022/05/11 07:49:58;;;;;;;;;;;;;;;32.98;20.39;100312.17;85691;1339;23068;-79
2022/05/11 07:52:03;;;;;;;;;;;;;;;32.65;20.98;100309.73;85677;1339;23037;-72
2022/05/11 07:54:11;;;;;;;;;;;;;;;32.39;21.14;100310.59;85685;1339;22595;-72
2022/05/11 08:01:08;;;;;;;;;;;;;;;32.19;22.40;100301.81;85462;1341;22717;-80
2022/05/11 08:03:16;;;;;;;;;;;;;;;32.35;22.20;100299.27;85690;1336;22484;-77
2022/05/11 08:05:26;;;;;;;;;;;;;;;32.40;21.78;100297.23;85675;1339;23211;-78
2022/05/11 08:07:39;;;;;;;;;;;;;;;32.36;21.53;100295.48;85501;1339;22508;-79
2022/05/11 08:09:46;;;;;;;;;;;;;;;32.22;21.79;100292.17;85686;1337;22505;-80
2022/05/11 08:11:52;;;;;;;;;;;;;;;32.09;21.75;100291.52;85675;1336;22497;-80
2022/05/11 08:14:01;;;;;;;;;;;;;;;31.82;22.04;100294.73;85676;1336;22532;-79
2022/05/11 08:16:10;;;;;;;;;;;;;;;31.59;22.15;100296.05;85679;1335;23194;-73
2022/05/11 08:18:15;;;;;;;;;;;;;;;31.41;22.51;100296.41;85665;1336;23300;-73
2022/05/11 08:20:25;;;;;;;;;;;;;;;31.10;23.00;100294.39;85677;1340;23175;-72
2022/05/11 08:22:30;;;;;;;;;;;;;;;30.74;23.32;100300.65;85679;1334;22575;-79
2022/05/11 08:24:36;;;;;;;;;;;;;;;30.49;23.86;100297.38;85676;1336;23215;-78
2022/05/11 08:26:41;;;;;;;;;;;;;;;30.20;24.34;100297.77;85675;1336;23314;-78
2022/05/11 08:28:46;;;;;;;;;;;;;;;29.98;24.17;100299.52;85565;1339;22560;-79
2022/05/11 08:33:22;;;;;;;;;;;;;;;29.71;25.40;100294.42;85487;1339;22599;-73
2022/05/11 08:35:28;;;;;;;;;;;;;;;29.82;25.31;100295.71;85658;1336;23283;-74
2022/05/11 08:37:36;;;;;;;;;;;;;;;30.12;25.08;100296.02;85670;1336;22465;-74
2022/05/11 08:39:45;;;;;;;;;;;;;;;30.54;25.39;100298.85;85677;1339;23138;-74
2022/05/11 08:41:51;;;;;;;;;;;;;;;30.76;24.78;100301.17;85671;1336;22546;-79
2022/05/11 08:43:57;;;;;;;;;;;;;;;30.94;24.79;100298.62;85668;1336;22497;-79
2022/05/11 08:46:09;;;;;;;;;;;;;;;30.96;24.43;100297.42;85662;1337;22510;-78
2022/05/11 08:48:21;;;;;;;;;;;;;;;30.83;24.92;100299.41;85665;1336;23066;-79
2022/05/11 08:50:26;;;;;;;;;;;;;;;31.01;25.04;100300.80;85676;1336;23077;-79
2022/05/11 08:52:36;;;;;;;;;;;;;;;31.40;24.68;100299.27;85695;1336;23075;-74
2022/05/11 08:54:45;;;;;;;;;;;;;;;31.55;23.62;100299.89;85671;1336;22486;-74
2022/05/11 08:56:53;;;;;;;;;;;;;;;31.66;23.87;100293.39;85687;1336;22542;-75
2022/05/11 08:58:58;;;;;;;;;;;;;;;31.89;23.98;100291.69;85545;1339;22514;-75
2022/05/11 09:01:05;;;;;;;;;;;;;;;32.19;23.90;100288.65;85521;1339;22603;-80
2022/05/11 09:03:15;;;;;;;;;;;;;;;32.47;23.64;100285.98;85674;1336;22567;-80
2022/05/11 09:05:23;;;;;;;;;;;;;;;32.69;23.60;100282.98;85679;1336;23184;-80
2022/05/11 09:07:28;;;;;;;;;;;;;;;32.82;23.11;100288.77;85550;1341;23052;-80
2022/05/11 09:09:35;;;;;;;;;;;;;;;32.99;22.57;100281.70;85705;1340;23170;-81
2022/05/11 09:11:45;;;;;;;;;;;;;;;32.95;22.22;100283.31;85698;1340;23105;-80
2022/05/11 09:13:51;;;;;;;;;;;;;;;32.73;22.67;100280.33;85697;1336;23297;-80
2022/05/11 09:16:00;;;;;;;;;;;;;;;32.58;22.64;100284.13;85696;1339;22524;-79
2022/05/11 09:18:06;;;;;;;;;;;;;;;32.44;23.11;100286.70;85691;1336;22535;-74
2022/05/11 09:20:13;;;;;;;;;;;;;;;32.46;23.05;100287.00;85693;1340;23162;-74
2022/05/11 09:22:18;;;;;;;;;;;;;;;32.49;22.81;100283.21;85709;1336;23266;-74
2022/05/11 09:24:29;;;;;;;;;;;;;;;32.39;22.98;100287.14;85704;1336;23084;-74
2022/05/11 09:26:36;;;;;;;;;;;;;;;32.20;23.42;100291.07;85693;1336;23083;-73
2022/05/11 09:28:42;;;;;;;;;;;;;;;32.04;23.54;100296.61;85703;1336;22514;-73
2022/05/11 09:31:02;;;;;;;;;;;;;;;31.97;23.71;100295.91;85708;1340;23184;-73
2022/05/11 09:33:15;;;;;;;;;;;;;;;32.03;24.02;100294.81;85483;1338;23188;-73
2022/05/11 09:35:25;;;;;;;;;;;;;;;32.20;24.06;100294.73;85691;1336;22574;-73
2022/05/11 09:37:36;;;;;;;;;;;;;;;32.37;23.45;100293.20;85679;1340;23046;-75
2022/05/11 09:39:51;;;;;;;;;;;;;;;32.53;23.52;100297.44;85683;1339;23166;-74
2022/05/11 09:42:11;;;;;;;;;;;;;;;32.65;23.32;100296.19;85709;1339;23199;-74
2022/05/11 09:44:23;;;;;;;;;;;;;;;32.62;22.88;100290.96;85702;1336;22486;-74
2022/05/11 09:46:31;;;;;;;;;;;;;;;32.54;23.34;100292.70;85696;1336;22564;-77
2022/05/11 09:48:39;;;;;;;;;;;;;;;32.55;23.69;100289.16;85705;1334;22585;-78
2022/05/11 09:50:44;;;;;;;;;;;;;;;32.56;23.72;100282.90;85702;1336;22453;-78
2022/05/11 09:52:50;;;;;;;;;;;;;;;32.49;23.71;100277.50;85538;1339;23112;-78
2022/05/11 09:54:56;;;;;;;;;;;;;;;32.36;23.63;100275.41;85559;1339;23165;-77
2022/05/11 09:57:03;;;;;;;;;;;;;;;32.27;24.06;100272.81;85696;1337;23060;-79
2022/05/11 09:59:23;;;;;;;;;;;;;;;32.18;23.74;100270.95;85713;1336;22483;-78
2022/05/11 10:01:30;;;;;;;;;;;;;;;32.07;23.84;100264.69;85680;1336;23155;-77
2022/05/11 10:03:36;;;;;;;;;;;;;;;31.98;24.33;100263.98;85487;1339;22564;-78
2022/05/11 10:05:47;;;;;;;;;;;;;;;32.01;24.28;100259.94;85562;1338;22551;-77
2022/05/11 10:07:54;;;;;;;;;;;;;;;32.06;24.23;100256.73;85708;1337;22499;-74
2022/05/11 10:10:06;;;;;;;;;;;;;;;32.14;24.07;100257.56;85681;1337;22521;-74
2022/05/11 10:12:14;;;;;;;;;;;;;;;32.21;24.37;100250.13;85687;1339;22475;-74
2022/05/11 10:21:56;;;;;;;;;;;;;;;31.99;23.80;100244.98;85668;1339;22472;-72
2022/05/11 10:24:23;;;;;;;;;;;;;;;31.88;23.77;100243.40;85671;1338;22465;-73
2022/05/11 10:26:35;;;;;;;;;;;;;;;31.82;24.23;100244.23;85638;1340;22510;-73
2022/05/11 10:28:45;;;;;;;;;;;;;;;31.74;24.19;100240.71;85677;1336;22656;-74
2022/05/11 10:30:55;;;;;;;;;;;;;;;31.75;24.13;100239.21;85666;1336;22611;-74
2022/05/11 10:33:21;;;;;;;;;;;;;;;31.77;23.95;100242.18;85662;1340;22614;-74
2022/05/11 10:35:43;;;;;;;;;;;;;;;31.78;23.93;100238.61;85675;1336;23089;-75
2022/05/11 10:37:58;;;;;;;;;;;;;;;31.82;23.94;100235.79;85633;1336;22540;-74
2022/05/11 10:40:18;;;;;;;;;;;;;;;31.76;24.16;100233.14;85649;1334;22594;-73
2022/05/11 10:42:29;;;;;;;;;;;;;;;31.77;24.40;100232.79;85632;1335;22558;-74
2022/05/11 10:44:42;;;;;;;;;;;;;;;31.80;24.31;100232.80;85617;1340;23077;-74
2022/05/11 10:46:50;;;;;;;;;;;;;;;31.87;24.46;100236.52;85654;1336;22502;-74
2022/05/11 10:49:02;;;;;;;;;;;;;;;31.93;24.10;100233.98;85642;1336;22480;-75
2022/05/11 10:51:11;;;;;;;;;;;;;;;31.96;24.16;100233.65;85651;1340;22506;-73
2022/05/11 10:53:26;;;;;;;;;;;;;;;32.00;24.00;100229.21;85636;1339;23220;-73
2022/05/11 10:55:40;;;;;;;;;;;;;;;32.02;24.08;100222.98;85650;1336;23157;-73
2022/05/11 10:57:48;;;;;;;;;;;;;;;31.94;23.77;100219.41;85646;1340;23201;-73
2022/05/11 11:00:04;;;;;;;;;;;;;;;31.78;24.12;100218.19;85447;1338;22545;-77
2022/05/11 11:02:45;;;;;;;;;;;;;;;31.67;24.25;100216.98;85647;1340;22476;-73
2022/05/11 11:04:56;;;;;;;;;;;;;;;31.67;24.48;100213.33;85624;1340;22481;-73
2022/05/11 11:07:23;;;;;;;;;;;;;;;31.71;24.71;100213.75;85636;1336;23051;-76
2022/05/11 11:09:32;;;;;;;;;;;;;;;31.70;24.48;100210.80;85620;1333;22507;-76
2022/05/11 11:11:42;;;;;;;;;;;;;;;31.66;24.77;100210.60;85656;1336;23119;-73
2022/05/11 11:13:50;;;;;;;;;;;;;;;31.65;24.84;100209.23;85658;1336;22563;-72
2022/05/11 11:15:58;;;;;;;;;;;;;;;31.65;24.46;100202.91;85520;1341;23183;-76
2022/05/11 11:18:06;;;;;;;;;;;;;;;31.60;24.85;100203.21;85596;1338;22483;-77
2022/05/11 11:20:15;;;;;;;;;;;;;;;31.64;24.69;100200.12;85680;1336;23137;-76
2022/05/11 11:22:19;;;;;;;;;;;;;;;31.63;24.86;100191.59;85685;1337;23179;-73
2022/05/11 11:24:24;;;;;;;;;;;;;;;31.63;25.08;100193.79;85673;1336;22772;-73
2022/05/11 11:26:49;;;;;;;;;;;;;;;31.64;25.58;100189.76;85663;1340;22473;-73
2022/05/11 11:29:32;;;;;;;;;;;;;;;31.62;25.30;100186.08;85655;1336;23094;-73
2022/05/11 11:31:53;;;;;;;;;;;;;;;31.70;25.19;100184.51;85516;1339;22592;-73